Slide Mountain Weather observations

Data are for 10 minute period ending at time listed.
 Day   Time   Solar   Ave.   Ave.  Ave.  Vector  Max.    Baro.  
  of    of     Rad.   Air    Rel.  Wind   Wind   Wind   Press.  
Year   Day            Temp.  Hum.  Speed  Dir.   Gust           
2015   (PST)  Kw/m2    F      %     mph   deg.    mph     mb.   
-----------------------------------------------------------------
  90    8:50   0.50   33.9    31   50.4   249     69.3    710.2 
  90    9:00   0.52   33.8    32   50.1   251     68.2    710.2 
  90    9:10   0.55   34.0    35   47.8   249     66.4    710.3 
  90    9:20   0.57   33.9    36   46.1   249     60.9    710.4 
  90    9:30   0.59   34.1    37   45.0   249     59.2    710.5 
  90    9:40   0.61   34.3    39   44.2   248     58.0    710.5 
  90    9:50   0.64   34.5    39   47.5   247     67.7    710.3 
  90   10:00   0.66   34.4    39   49.9   251     70.8    710.3 
  90   10:10   0.67   34.4    41   50.2   250     64.7    710.2 
  90   10:20   0.69   34.4    42   50.2   249     63.6    710.2 
  90   10:30   0.70   34.8    43   49.1   248     65.9    710.2 
  90   10:40   0.72   34.6    43   50.5   249     65.5    710.2 
  90   10:50   0.73   34.6    45   48.6   251     64.6    710.2 
  90   11:00   0.74   34.8    42   49.0   250     62.4    710.2 
  90   11:10   0.75   35.0    43   48.6   252     63.1    710.2 
  90   11:20   0.76   35.1    43   49.6   252     68.3    710.2 
  90   11:30   0.77   35.0    38   53.9   251     75.2    709.9 
  90   11:40   0.77   35.0    33   53.0   253     70.3    710.0 
  90   11:50   0.78   35.2    31   53.3   250     68.6    709.9 
  90   12:00   0.78   35.2    29   53.9   252     76.8    709.8 
  90   12:10   0.78   35.6    29   52.5   250     70.6    709.7 
  90   12:20   0.78   35.7    27   56.8   256     72.9    709.6 
  90   12:30   0.78   35.6    25   55.2   252     73.6    709.7 
  90   12:40   0.77   35.8    25   53.9   252     66.2    709.8 
  90   12:50   0.77   36.3    25   49.1   251     69.4    709.8 
  90   13:00   0.76   36.0    27   51.7   253     67.5    709.7 
  90   13:10   0.75   36.2    28   49.0   257     66.8    709.8 
  90   13:20   0.74   36.3    29   48.3   261     63.4    710.0 
  90   13:30   0.73   36.3    28   50.3   258     62.0    710.0 
  90   13:40   0.72   36.2    28   49.0   259     64.4    710.0 
  90   13:50   0.70   36.2    29   47.5   258     64.2    710.0 
  90   14:00   0.69   36.0    28   49.8   260     68.4    710.0 
  90   14:10   0.67   35.7    28   50.1   255     68.9    710.0 
  90   14:20   0.65   35.8    28   49.4   259     64.6    710.0 
  90   14:30   0.63   35.3    30   48.8   259     63.5    710.1 
  90   14:40   0.61   35.4    30   49.5   260     64.6    710.0 
  90   14:50   0.59   35.1    31   49.2   260     61.3    710.1 
  90   15:00   0.56   35.4    32   48.8   261     62.2    710.0 
  90   15:10   0.54   35.3    30   49.6   259     62.3    709.9 
  90   15:20   0.52   34.8    33   52.4   261     68.2    709.8 
  90   15:30   0.49   34.5    35   53.8   261     67.8    709.6 
  90   15:40   0.47   34.2    34   56.5   263     71.8    709.3 
  90   15:50   0.44   34.2    35   55.4   263     66.8    709.3 
  90   16:00   0.41   34.1    37   56.6   262     71.6    709.0 
  90   16:10   0.38   33.6    43   55.9   259     72.6    708.8 
  90   16:20   0.35   33.2    47   59.0   262     75.6    708.6 
  90   16:30   0.33   32.9    48   64.2   262     79.0    708.5 
  90   16:40   0.30   32.7    50   60.0   264     73.5    708.6 
  90   16:50   0.27   32.3    56   57.0   263     71.0    708.8 
  90   17:00   0.24   32.2    55   52.4   263     66.7    709.0 
  90   17:10   0.21   32.1    48   50.9   268     70.6    709.1 
  90   17:20   0.18   31.6    50   45.7   267     60.3    709.3 
  90   17:30   0.15   30.9    54   42.6   268     55.3    709.6 
  90   17:40   0.12   30.1    60   40.2   267     51.3    709.7 
  90   17:50   0.09   29.3    63   37.4   271     50.4    710.0 
  90   18:00   0.04   28.4    66   30.7   273     40.1    710.3 
  90   18:10   0.01   27.0    76   27.5   276     39.6    710.5 
  90   18:20   0.01   26.4    78   26.0   278     37.1    710.5 
  90   18:30   0.00   26.1    73   15.6   283     29.2    710.9 
  90   18:40   0.00   25.9    64   12.0   285     19.4    711.0 
  90   18:50   0.00   25.6    59   14.3   287     26.7    710.9 
  90   19:00   0.00   25.2    63   19.9   283     28.9    710.8 
  90   19:10   0.00   24.4    69   16.6   301     29.7    710.8 
  90   19:20   0.00   24.1    62   15.9   304     28.5    710.6 
  90   19:30   0.00   24.2    51   14.6   316     22.6    710.9 
  90   19:40   0.00   24.1    51   11.6   334     20.2    711.0 
  90   19:50   0.00   24.7    34   12.5   340     20.7    711.1 
  90   20:00   0.00   24.7    37   10.4   353     16.6    711.4 
  90   20:10   0.00   24.3    41    4.4     9     10.4    711.7 
  90   20:20   0.00   23.9    46    2.9    26      7.3    711.9 
  90   20:30   0.00   23.4    52    7.4   358     18.3    712.0 
  90   20:40   0.00   22.9    61    7.0   328      9.8    712.0 
  90   20:50   0.00   22.8    59   10.1   319     18.5    712.0 
  90   21:00   0.00   23.4    43    9.4   340     17.0    712.0 
  90   21:10   0.00   23.1    41    4.3     8      8.3    712.0 
  90   21:20   0.00   23.8    30    3.2    46     10.3    712.1 
  90   21:30   0.00   24.2    28    3.0   348      5.9    712.1 
  90   21:40   0.00   25.1    23    3.2   329     10.9    712.1 
  90   21:50   0.00   25.1    44    8.2    55     13.2    712.1 
  90   22:00   0.00   24.8    30    0.3    44      4.4    712.1 
  90   22:10   0.00   24.1    55    7.0    76     15.1    712.3 
  90   22:20   0.00   23.0    76    4.6    74     13.3    712.3 
  90   22:30   0.00   23.1    68    0.0   222      0.1    712.2 
  90   22:40   0.00   22.8    79    1.0   130      5.5    712.2 
  90   22:50   0.00   22.1    82    5.7   110      8.2    712.2 
  90   23:00   0.00   22.1    80    0.7   129      2.5    712.2 
  90   23:10   0.00   22.2    81    1.8   159      8.8    712.2 
  90   23:20   0.00   21.0    84    5.1   130      8.0    712.1 
  90   23:30   0.00   21.4    79    3.3   162      6.1    712.1 
  90   23:40   0.00   21.4    80    3.4   140      6.2    712.1 
  90   23:50   0.00   20.5    82    2.2   230      8.9    712.0 
  91    0:00   0.00   21.6    65    7.0   174     10.4    712.0 
  91    0:10   0.00   19.0    89    5.3    95     13.2    712.0 
  91    0:20   0.00   20.5    78    5.4   240     10.2    712.1 
  91    0:30   0.00   19.5    86    7.5   114     10.5    712.1 
  91    0:40   0.00   19.8    83    4.3   172      7.2    712.0 
  91    0:50   0.00   20.1    78    4.3   214      6.6    712.0 
  91    1:00   0.00   19.9    81    6.3   157     10.5    711.9 
  91    1:10   0.00   20.2    71    8.1   176     10.6    712.0 
  91    1:20   0.00   20.5    74    9.0   175     10.9    711.9 
  91    1:30   0.00   20.8    66    7.7   186      9.8    711.8 
  91    1:40   0.00   20.6    74    7.7   155     10.0    711.7 
  91    1:50   0.00   20.6    71   10.5   158     14.0    711.6 
  91    2:00   0.00   20.9    69   11.2   168     14.9    711.5 
  91    2:10   0.00   20.8    70   12.0   156     14.3    711.3 
  91    2:20   0.00   20.1    75   10.3   166     12.7    711.3 
  91    2:30   0.00   20.1    75    9.4   163     12.1    711.2 
  91    2:40   0.00   19.6    81   11.6   163     14.9    711.1 
  91    2:50   0.00   19.5    84   13.1   161     16.3    711.0 
  91    3:00   0.00   19.3    85   12.0   168     14.1    711.0 
  91    3:10   0.00   19.0    86   13.2   165     15.1    710.9 
  91    3:20   0.00   18.6    89   12.3   169     14.7    710.8 
  91    3:30   0.00   18.1    92   12.5   160     15.2    710.7 
  91    3:40   0.00   17.8    95   10.5   157     12.9    710.7 
  91    3:50   0.00   18.0    96   11.9   148     14.8    710.6 
  91    4:00   0.00   17.9    96   10.2   153     12.9    710.5 
  91    4:10   0.00   18.0    96   10.3   154     13.4    710.6 
  91    4:20   0.00   17.8    95    7.6   174     11.9    710.5 
  91    4:30   0.00   17.9    93    5.1   208      7.1    710.5 
  91    4:40   0.00   17.9    94    5.6   192      7.5    710.5 
  91    4:50   0.00   17.9    92    5.1   212      7.2    710.3 
  91    5:00   0.00   18.1    91    5.2   202      6.9    710.3 
  91    5:10   0.00   18.2    92    7.4   184     10.1    710.3 
  91    5:20   0.00   17.9    93    8.0   179     10.8    710.2 
  91    5:30   0.00   18.0    90    6.6   203      8.8    710.2 
  91    5:40   0.00   18.1    88    6.0   203      9.0    710.2 
  91    5:50   0.01   18.1    90    6.1   199      7.8    710.2 
  91    6:00   0.01   18.6    87    6.0   219      8.8    710.3 
  91    6:10   0.04   19.0    88    5.0   220      7.9    710.4 
  91    6:20   0.07   19.4    86    6.4   222      8.3    710.4 
  91    6:30   0.10   19.6    83    9.0   233     15.0    710.5 
  91    6:40   0.14   20.8    68   13.1   237     17.4    710.5 
  91    6:50   0.18   21.5    61   12.7   237     17.4    710.4 
  91    7:00   0.20   21.9    54   13.3   240     17.0    710.4 
  91    7:10   0.19   22.0    52   11.8   242     14.7    710.4 
  91    7:20   0.26   22.9    42   12.9   244     17.1    710.5 
  91    7:30   0.27   23.3    43   11.2   244     15.2    710.5 
  91    7:40   0.31   23.3    50   10.0   242     12.5    710.4 
  91    7:50   0.35   23.5    54   10.1   248     13.9    710.5 
  91    8:00   0.35   24.2    55    8.8   242     13.3    710.5 
  91    8:10   0.34   23.8    58    8.2   243     13.5    710.6 
  91    8:20   0.36   24.0    57   10.6   243     15.5    710.6 
  91    8:30   0.43   24.8    59    8.5   240     11.0    710.6 
  91    8:40   0.41   24.7    56   10.1   239     13.1    710.6 

Return to Slide Mountain graphs page.


Western Regional Climate Center,wrcc@dri.edu